createdAt,value
2018-08-03T00:00:34.178Z,12.03
2018-08-03T00:03:03.557Z,12.50
2018-08-03T00:05:32.788Z,12.93
2018-08-03T00:08:01.960Z,11.87
2018-08-03T00:10:31.147Z,12.93
2018-08-03T00:13:00.297Z,12.70
2018-08-03T00:15:29.487Z,11.67
2018-08-03T00:17:58.661Z,12.50
2018-08-03T00:38:30.960Z,12.90
2018-08-03T00:41:00.258Z,12.60
2018-08-03T00:43:29.426Z,12.63
2018-08-03T00:45:58.583Z,12.00
2018-08-03T00:48:27.961Z,13.60
2018-08-03T00:50:57.100Z,14.37
2018-08-03T00:53:26.269Z,14.17
2018-08-03T00:55:55.460Z,14.53
2018-08-03T00:58:24.633Z,15.17
2018-08-03T01:00:53.823Z,15.30
2018-08-03T01:21:26.464Z,13.03
2018-08-03T01:23:55.653Z,13.63
2018-08-03T01:26:24.828Z,14.30
2018-08-03T01:28:54.181Z,13.37
2018-08-03T01:31:23.355Z,13.63
2018-08-03T01:33:52.508Z,13.47
2018-08-03T01:36:21.708Z,13.10
2018-08-03T01:38:50.851Z,12.77
2018-08-03T01:59:24.490Z,14.13
2018-08-03T02:01:53.659Z,13.43
2018-08-03T02:04:22.812Z,13.33
2018-08-03T02:06:52.001Z,13.73
2018-08-03T02:09:21.173Z,14.17
2018-08-03T02:11:50.050Z,12.93
2018-08-03T02:14:19.112Z,14.40
2018-08-03T02:16:48.337Z,14.60
2018-08-03T02:19:17.505Z,14.30
2018-08-03T02:21:46.687Z,14.00
2018-08-03T02:24:15.901Z,14.27
2018-08-03T02:26:45.089Z,14.27
2018-08-03T02:47:18.786Z,14.57
2018-08-03T02:49:48.682Z,14.40
2018-08-03T02:52:18.289Z,15.47
2018-08-03T03:12:52.169Z,15.23
2018-08-03T03:15:21.466Z,15.10
2018-08-03T03:17:50.901Z,15.27
2018-08-03T03:20:20.753Z,15.67
2018-08-03T03:40:54.479Z,15.97
2018-08-03T04:01:29.447Z,19.13
2018-08-03T04:22:03.381Z,21.60
2018-08-03T04:24:32.898Z,20.57
2018-08-03T04:45:06.050Z,19.53
2018-08-03T04:47:35.618Z,18.77
2018-08-03T04:50:05.147Z,20.17
2018-08-03T04:52:34.322Z,20.77
2018-08-03T04:55:03.681Z,20.23
2018-08-03T04:57:33.041Z,21.23
2018-08-03T05:00:03.085Z,21.87
2018-08-03T05:02:32.321Z,22.40
2018-08-03T05:05:02.367Z,20.93
2018-08-03T05:07:32.448Z,22.07
2018-08-03T05:10:02.116Z,21.03
2018-08-03T05:12:31.361Z,21.87
2018-08-03T05:15:00.636Z,22.03
2018-08-03T05:17:29.880Z,21.73
2018-08-03T05:19:59.420Z,22.40
2018-08-03T05:22:29.494Z,21.43
2018-08-03T05:24:59.661Z,20.17
2018-08-03T05:27:28.983Z,22.67
2018-08-03T05:29:58.827Z,22.50
2018-08-03T05:32:28.335Z,23.73
2018-08-03T05:34:57.997Z,22.07
2018-08-03T05:37:28.139Z,21.90
2018-08-03T05:39:57.414Z,21.70
2018-08-03T06:00:31.206Z,21.33
2018-08-03T06:03:00.957Z,20.97
2018-08-03T06:05:30.313Z,20.33
2018-08-03T06:07:59.758Z,21.20
2018-08-03T06:10:29.144Z,19.40
2018-08-03T06:31:01.970Z,16.50
2018-08-03T06:33:31.239Z,16.33
2018-08-03T06:36:00.612Z,17.40
2018-08-03T06:38:30.583Z,17.77
2018-08-03T06:41:00.878Z,17.40
2018-08-03T07:01:34.899Z,16.47
2018-08-03T07:04:04.480Z,17.53
2018-08-03T07:24:38.658Z,16.90
2018-08-03T07:27:08.083Z,17.37
2018-08-03T07:47:41.743Z,15.63
2018-08-03T08:08:15.859Z,16.43
2018-08-03T08:10:45.655Z,16.43
2018-08-03T08:31:20.246Z,15.57
2018-08-03T08:33:50.374Z,15.53
2018-08-03T08:54:23.997Z,15.10
2018-08-03T09:14:57.613Z,15.67
2018-08-03T09:17:26.842Z,15.23
2018-08-03T09:19:56.803Z,15.00
2018-08-03T09:22:26.224Z,14.70
2018-08-03T09:43:00.323Z,14.73
2018-08-03T09:45:29.750Z,13.77
2018-08-03T09:47:58.904Z,14.67
2018-08-03T09:50:27.923Z,15.63
2018-08-03T09:52:57.081Z,15.27
2018-08-03T09:55:26.360Z,16.03
2018-08-03T09:57:55.660Z,15.27
2018-08-03T10:00:30.209Z,15.27
2018-08-03T10:02:59.466Z,14.33
2018-08-03T10:05:29.302Z,15.13
2018-08-03T10:26:03.223Z,15.83
2018-08-03T10:28:32.484Z,15.67
2018-08-03T10:31:05.463Z,15.93
2018-08-03T10:33:35.074Z,15.43
2018-08-03T10:54:09.173Z,15.97
2018-08-03T11:14:43.145Z,14.57
2018-08-03T11:17:12.403Z,14.90
2018-08-03T11:19:41.558Z,12.87
2018-08-03T11:22:12.334Z,14.50
2018-08-03T11:24:42.209Z,14.47
2018-08-03T11:27:12.176Z,13.30
2018-08-03T11:29:42.023Z,14.17
2018-08-03T11:32:11.425Z,14.13
2018-08-03T11:34:40.785Z,13.23
2018-08-03T11:37:10.195Z,13.57
2018-08-03T11:39:39.453Z,14.03
2018-08-03T11:42:08.730Z,13.73
2018-08-03T11:44:38.561Z,13.43
2018-08-03T11:47:07.878Z,12.97
2018-08-03T11:49:37.410Z,13.43
2018-08-03T11:52:07.578Z,13.17
2018-08-03T11:54:37.010Z,13.40
2018-08-03T12:15:10.719Z,12.93
2018-08-03T12:17:40.008Z,12.90
2018-08-03T12:20:09.260Z,13.17
2018-08-03T12:22:38.509Z,12.70
2018-08-03T12:25:07.827Z,13.77
2018-08-03T12:27:37.629Z,12.87
2018-08-03T12:30:07.442Z,12.10
2018-08-03T12:32:36.977Z,12.80
2018-08-03T12:35:06.406Z,11.73
2018-08-03T12:37:35.673Z,12.60
2018-08-03T12:40:05.430Z,12.80
2018-08-03T12:42:34.753Z,12.33
2018-08-03T12:45:04.141Z,13.60
2018-08-03T13:05:37.314Z,12.87
2018-08-03T13:08:07.690Z,12.40
2018-08-03T13:10:38.146Z,11.57
2018-08-03T13:13:07.509Z,11.70
2018-08-03T13:15:36.979Z,11.93
2018-08-03T13:36:09.729Z,11.83
2018-08-03T13:38:39.017Z,11.53
2018-08-03T13:41:08.481Z,11.40
2018-08-03T13:43:38.482Z,10.63
2018-08-03T14:04:19.604Z,9.90
2018-08-03T14:06:48.982Z,9.73
2018-08-03T14:09:19.875Z,9.95
2018-08-03T14:11:49.126Z,11.00
2018-08-03T14:32:15.717Z,9.70
2018-08-03T14:34:44.955Z,9.90
2018-08-03T14:37:14.848Z,10.03
2018-08-03T14:39:46.708Z,9.78
2018-08-03T14:42:16.803Z,8.50
2018-08-03T14:44:46.110Z,9.60
2018-08-03T14:47:16.377Z,10.35
2018-08-03T14:49:45.717Z,9.35
2018-08-03T14:52:14.778Z,8.85
2018-08-03T14:54:45.124Z,9.30
2018-08-03T14:57:14.073Z,9.55
2018-08-03T14:59:43.919Z,9.40
2018-08-03T15:02:13.214Z,10.38
2018-08-03T15:04:42.622Z,9.90
2018-08-03T15:07:11.958Z,9.83
2018-08-03T15:09:41.200Z,10.15
2018-08-03T15:12:10.978Z,10.58
2018-08-03T15:14:40.693Z,10.10
2018-08-03T15:17:09.874Z,10.25
2018-08-03T15:19:39.128Z,10.53
2018-08-03T15:22:08.406Z,9.68
2018-08-03T15:24:37.669Z,9.88
2018-08-03T15:45:10.345Z,10.88
2018-08-03T16:05:45.576Z,10.55
2018-08-03T16:08:14.844Z,11.57
2018-08-03T16:10:45.625Z,11.10
2018-08-03T16:13:15.514Z,10.75
2018-08-03T16:15:44.808Z,9.85
2018-08-03T16:18:14.071Z,11.35
2018-08-03T16:20:43.701Z,10.80
2018-08-03T16:23:13.002Z,11.55
2018-08-03T16:25:42.324Z,11.57
2018-08-03T16:28:11.842Z,11.85
2018-08-03T16:30:41.079Z,11.78
2018-08-03T16:33:10.372Z,11.25
2018-08-03T16:35:41.330Z,12.17
2018-08-03T16:38:10.509Z,12.17
2018-08-03T16:40:41.284Z,12.57
2018-08-03T16:43:11.129Z,11.77
2018-08-03T17:03:36.826Z,12.17
2018-08-03T17:24:10.265Z,12.73
2018-08-03T17:26:40.973Z,11.57
2018-08-03T17:47:14.477Z,12.37
2018-08-03T17:49:43.850Z,12.63
2018-08-03T17:52:13.101Z,12.57
2018-08-03T18:12:46.681Z,13.70
2018-08-03T18:15:16.422Z,12.20
2018-08-03T18:17:45.824Z,11.80
2018-08-03T18:20:16.294Z,13.10
2018-08-03T18:22:45.712Z,12.77
2018-08-03T18:25:14.974Z,12.47
2018-08-03T18:45:48.310Z,14.97
2018-08-03T18:48:17.622Z,15.33
2018-08-03T18:50:47.694Z,14.10
2018-08-03T18:53:16.967Z,14.23
2018-08-03T18:55:47.214Z,14.60
2018-08-03T18:58:17.053Z,13.90
2018-08-03T19:00:47.032Z,14.50
2018-08-03T19:21:20.535Z,15.40
2018-08-03T19:23:49.771Z,14.20
2018-08-03T19:26:19.063Z,15.70
2018-08-03T19:46:51.837Z,14.50
2018-08-03T19:49:21.783Z,14.23
2018-08-03T19:51:51.085Z,15.73
2018-08-03T19:54:20.422Z,14.43
2018-08-03T19:56:50.542Z,14.30
2018-08-03T19:59:19.844Z,15.10
2018-08-03T20:19:52.743Z,14.33
2018-08-03T20:22:22.164Z,14.23
2018-08-03T20:24:52.178Z,14.00
2018-08-03T20:27:21.480Z,14.33
2018-08-03T20:29:50.835Z,13.73
2018-08-03T20:32:21.143Z,14.63
2018-08-03T20:34:51.158Z,14.13
2018-08-03T20:37:20.446Z,14.43
2018-08-03T20:39:49.743Z,14.10
2018-08-03T20:42:19.189Z,14.50
2018-08-03T21:02:53.590Z,14.60
2018-08-03T21:05:22.906Z,14.73
2018-08-03T21:07:52.182Z,14.47
2018-08-03T21:10:21.874Z,14.30
2018-08-03T21:12:51.836Z,14.47
2018-08-03T21:15:21.268Z,14.13
2018-08-03T21:17:50.553Z,14.97
2018-08-03T21:20:19.858Z,15.00
2018-08-03T21:22:49.170Z,13.97
2018-08-03T21:25:18.344Z,14.23
2018-08-03T21:27:47.671Z,14.43
2018-08-03T21:30:16.992Z,15.57
2018-08-03T21:32:47.539Z,15.13
2018-08-03T21:35:16.764Z,13.67
2018-08-03T21:37:46.054Z,15.00
2018-08-03T21:40:15.409Z,13.97
2018-08-03T22:00:49.530Z,15.93
2018-08-03T22:03:18.889Z,16.17
2018-08-03T22:05:48.201Z,16.20
2018-08-03T22:08:18.316Z,15.13
2018-08-03T22:10:48.154Z,15.63
2018-08-03T22:13:17.547Z,16.37
2018-08-03T22:15:47.361Z,16.40
2018-08-03T22:18:16.609Z,16.37
2018-08-03T22:20:45.897Z,16.00
2018-08-03T22:23:15.181Z,15.83
2018-08-03T22:25:44.411Z,16.87
2018-08-03T22:28:13.669Z,16.80
2018-08-03T22:30:43.074Z,17.43
2018-08-03T22:33:12.355Z,17.07
2018-08-03T22:35:41.749Z,16.97
2018-08-03T22:38:11.722Z,16.97
2018-08-03T22:40:40.965Z,17.37
2018-08-03T22:43:10.230Z,17.90
2018-08-03T22:45:39.710Z,17.33
2018-08-03T22:48:08.936Z,17.10
2018-08-03T23:08:35.802Z,19.90
2018-08-03T23:11:05.228Z,20.00
2018-08-03T23:13:34.566Z,18.97
2018-08-03T23:16:04.789Z,19.37
2018-08-03T23:18:34.093Z,19.50
2018-08-03T23:21:03.338Z,19.70
2018-08-03T23:23:32.577Z,19.60
2018-08-03T23:26:01.832Z,19.40
2018-08-03T23:28:32.083Z,19.60
2018-08-03T23:31:01.943Z,19.83
2018-08-03T23:33:31.404Z,19.20
2018-08-03T23:36:00.642Z,19.63
2018-08-03T23:38:30.180Z,19.60
2018-08-03T23:40:59.557Z,19.40
